createdAt,value
2023-04-03T00:00:43.752Z,3.36
2023-04-03T00:03:22.526Z,3.33
2023-04-03T00:05:54.850Z,3.27
2023-04-03T00:08:27.277Z,3.25
2023-04-03T00:10:59.493Z,3.22
2023-04-03T00:13:31.889Z,3.18
2023-04-03T00:16:04.806Z,3.15
2023-04-03T00:18:37.365Z,3.10
2023-04-03T00:21:11.898Z,3.05
2023-04-03T00:23:44.213Z,3.02
2023-04-03T00:26:16.395Z,2.99
2023-04-03T00:28:48.672Z,2.95
2023-04-03T00:31:20.997Z,2.94
2023-04-03T00:33:53.220Z,2.90
2023-04-03T00:36:25.676Z,2.88
2023-04-03T00:38:57.953Z,2.85
2023-04-03T00:41:30.173Z,2.82
2023-04-03T00:44:02.452Z,2.81
2023-04-03T00:46:34.807Z,2.82
2023-04-03T00:49:07.074Z,2.88
2023-04-03T00:51:39.376Z,2.89
2023-04-03T00:54:11.990Z,2.91
2023-04-03T00:56:45.353Z,2.94
2023-04-03T00:59:24.187Z,2.94
2023-04-03T01:01:58.120Z,2.93
2023-04-03T01:04:35.920Z,2.94
2023-04-03T01:07:12.586Z,2.93
2023-04-03T01:09:46.793Z,2.92
2023-04-03T01:12:21.646Z,2.92
2023-04-03T01:14:55.745Z,2.91
2023-04-03T01:17:36.532Z,2.89
2023-04-03T01:20:47.329Z,2.84
2023-04-03T01:23:36.403Z,2.83
2023-04-03T01:26:10.114Z,2.80
2023-04-03T01:28:42.609Z,2.75
2023-04-03T01:31:22.419Z,2.71
2023-04-03T01:33:55.486Z,2.67
2023-04-03T01:36:31.122Z,2.65
2023-04-03T01:39:03.610Z,2.62
2023-04-03T01:41:35.913Z,2.58
2023-04-03T01:44:15.822Z,2.57
2023-04-03T01:46:48.611Z,2.54
2023-04-03T01:49:20.958Z,2.53
2023-04-03T01:51:53.292Z,2.52
2023-04-03T01:54:25.564Z,2.50
2023-04-03T01:56:57.904Z,2.52
2023-04-03T01:59:30.442Z,2.60
2023-04-03T02:02:02.761Z,2.63
2023-04-03T02:04:35.090Z,2.66
2023-04-03T02:07:07.362Z,2.66
2023-04-03T02:09:39.559Z,2.65
2023-04-03T02:12:12.012Z,2.63
2023-04-03T02:14:44.396Z,2.62
2023-04-03T02:17:17.619Z,2.61
2023-04-03T02:19:49.931Z,2.58
2023-04-03T02:22:22.407Z,2.56
2023-04-03T02:24:54.602Z,2.56
2023-04-03T02:27:26.971Z,2.53
2023-04-03T02:29:59.359Z,2.47
2023-04-03T02:32:31.849Z,2.41
2023-04-03T02:35:04.329Z,2.38
2023-04-03T02:37:37.889Z,2.36
2023-04-03T02:40:13.043Z,2.33
2023-04-03T02:42:45.286Z,2.30
2023-04-03T02:45:18.011Z,2.27
2023-04-03T02:47:50.347Z,2.25
2023-04-03T02:50:22.652Z,2.25
2023-04-03T02:52:54.879Z,2.32
2023-04-03T02:55:27.454Z,2.34
2023-04-03T02:58:00.553Z,2.39
2023-04-03T03:00:33.218Z,2.43
2023-04-03T03:03:05.994Z,2.45
2023-04-03T03:05:38.551Z,2.43
2023-04-03T03:08:11.833Z,2.40
2023-04-03T03:10:44.099Z,2.39
2023-04-03T03:13:16.633Z,2.39
2023-04-03T03:15:48.985Z,2.39
2023-04-03T03:18:21.394Z,2.39
2023-04-03T03:20:57.007Z,2.36
2023-04-03T03:23:31.685Z,2.36
2023-04-03T03:26:06.370Z,2.32
2023-04-03T03:28:41.512Z,2.28
2023-04-03T03:31:14.606Z,2.25
2023-04-03T03:33:46.966Z,2.23
2023-04-03T03:36:19.203Z,2.20
2023-04-03T03:38:51.438Z,2.18
2023-04-03T03:41:23.948Z,2.11
2023-04-03T03:43:56.419Z,2.06
2023-04-03T03:46:29.406Z,2.05
2023-04-03T03:49:01.770Z,2.04
2023-04-03T03:51:34.008Z,2.02
2023-04-03T03:54:06.432Z,2.01
2023-04-03T03:56:38.839Z,2.08
2023-04-03T03:59:13.348Z,2.10
2023-04-03T04:01:46.044Z,2.12
2023-04-03T04:04:18.464Z,2.13
2023-04-03T04:06:51.644Z,2.16
2023-04-03T04:09:24.320Z,2.14
2023-04-03T04:11:56.676Z,2.13
2023-04-03T04:14:28.904Z,2.10
2023-04-03T04:17:03.515Z,2.09
2023-04-03T04:19:36.322Z,2.09
2023-04-03T04:22:08.630Z,2.09
2023-04-03T04:24:41.380Z,2.09
2023-04-03T04:27:13.877Z,2.09
2023-04-03T04:29:46.218Z,2.09
2023-04-03T04:32:18.587Z,2.06
2023-04-03T04:34:51.209Z,2.03
2023-04-03T04:37:23.606Z,2.02
2023-04-03T04:39:56.038Z,2.00
2023-04-03T04:42:28.619Z,1.98
2023-04-03T04:45:00.873Z,1.96
2023-04-03T04:47:33.539Z,1.94
2023-04-03T04:50:06.621Z,1.93
2023-04-03T04:52:39.361Z,1.93
2023-04-03T04:55:12.324Z,1.99
2023-04-03T04:57:44.642Z,2.04
2023-04-03T05:00:19.884Z,2.08
2023-04-03T05:02:52.552Z,2.15
2023-04-03T05:05:25.185Z,2.19
2023-04-03T05:07:57.909Z,2.20
2023-04-03T05:10:30.859Z,2.21
2023-04-03T05:13:03.058Z,2.21
2023-04-03T05:15:35.559Z,2.23
2023-04-03T05:18:09.253Z,2.27
2023-04-03T05:20:41.786Z,2.29
2023-04-03T05:23:14.609Z,2.30
2023-04-03T05:25:48.092Z,2.30
2023-04-03T05:28:20.606Z,2.31
2023-04-03T05:30:57.897Z,2.32
2023-04-03T05:33:31.432Z,2.34
2023-04-03T05:36:08.526Z,2.35
2023-04-03T05:38:44.032Z,2.36
2023-04-03T05:41:16.911Z,2.37
2023-04-03T05:43:50.621Z,2.40
2023-04-03T05:46:23.427Z,2.44
2023-04-03T05:48:58.480Z,2.45
2023-04-03T05:51:36.545Z,2.49
2023-04-03T05:54:19.997Z,2.57
2023-04-03T05:56:53.277Z,2.64
2023-04-03T05:59:26.231Z,2.66
2023-04-03T06:01:59.144Z,2.68
2023-04-03T06:04:31.690Z,2.73
2023-04-03T06:07:04.663Z,2.78
2023-04-03T06:09:37.416Z,2.82
2023-04-03T06:12:10.879Z,2.87
2023-04-03T06:14:43.357Z,2.93
2023-04-03T06:17:16.415Z,2.97
2023-04-03T06:19:49.372Z,3.04
2023-04-03T06:22:22.368Z,3.13
2023-04-03T06:24:54.569Z,3.19
2023-04-03T06:27:26.800Z,3.29
2023-04-03T06:29:59.021Z,3.38
2023-04-03T06:32:31.356Z,3.44
2023-04-03T06:35:04.253Z,3.48
2023-04-03T06:37:36.584Z,3.53
2023-04-03T06:40:17.770Z,3.63
2023-04-03T06:42:50.350Z,3.73
2023-04-03T06:45:23.629Z,3.77
2023-04-03T06:47:56.725Z,3.83
2023-04-03T06:50:29.194Z,3.92
2023-04-03T06:53:02.053Z,3.97
2023-04-03T06:55:34.334Z,4.04
2023-04-03T06:58:06.665Z,4.13
2023-04-03T07:00:39.282Z,4.19
2023-04-03T07:03:11.775Z,4.25
2023-04-03T07:05:45.925Z,4.30
2023-04-03T07:08:18.176Z,4.36
2023-04-03T07:10:51.334Z,4.47
2023-04-03T07:13:23.568Z,4.57
2023-04-03T07:15:56.032Z,4.65
2023-04-03T07:18:28.567Z,4.71
2023-04-03T07:21:01.458Z,4.71
2023-04-03T07:23:33.898Z,4.74
2023-04-03T07:26:06.738Z,4.78
2023-04-03T07:28:41.269Z,4.87
2023-04-03T07:31:16.119Z,4.96
2023-04-03T07:33:47.313Z,5.04
2023-04-03T07:36:23.220Z,5.09
2023-04-03T07:38:55.565Z,5.12
2023-04-03T07:41:27.926Z,5.16
2023-04-03T07:44:00.230Z,5.21
2023-04-03T07:46:32.574Z,5.28
2023-04-03T07:49:04.865Z,5.40
2023-04-03T07:51:37.011Z,5.50
2023-04-03T07:54:09.375Z,5.60
2023-04-03T07:56:41.763Z,5.70
2023-04-03T07:59:14.006Z,5.82
2023-04-03T08:01:46.258Z,5.93
2023-04-03T08:04:18.535Z,6.02
2023-04-03T08:06:50.804Z,6.13
2023-04-03T08:09:23.262Z,6.27
2023-04-03T08:11:55.501Z,6.39
2023-04-03T08:14:27.713Z,6.48
2023-04-03T08:17:00.076Z,6.55
2023-04-03T08:19:32.492Z,6.58
2023-04-03T08:22:06.114Z,6.62
2023-04-03T08:24:39.373Z,6.64
2023-04-03T08:27:15.511Z,6.65
2023-04-03T08:29:48.618Z,6.66
2023-04-03T08:32:21.183Z,6.56
2023-04-03T08:34:53.740Z,6.44
2023-04-03T08:37:26.557Z,6.48
2023-04-03T08:39:58.919Z,6.49
2023-04-03T08:42:44.162Z,6.44
2023-04-03T08:45:19.653Z,6.39
2023-04-03T08:47:58.570Z,6.34
2023-04-03T08:50:38.227Z,6.29
2023-04-03T08:53:16.893Z,6.20
2023-04-03T08:55:51.294Z,6.09
2023-04-03T08:58:25.453Z,5.98
2023-04-03T09:01:02.000Z,5.96
2023-04-03T09:03:36.526Z,6.01
2023-04-03T09:06:16.230Z,6.10
2023-04-03T09:08:57.807Z,6.19
2023-04-03T09:11:38.692Z,6.24
2023-04-03T09:14:23.688Z,6.35
2023-04-03T09:16:59.146Z,6.42
2023-04-03T09:19:44.140Z,6.50
2023-04-03T09:22:22.764Z,6.49
2023-04-03T09:25:01.126Z,6.47
2023-04-03T09:27:33.474Z,6.44
2023-04-03T09:30:08.112Z,6.40
2023-04-03T09:32:40.297Z,6.41
2023-04-03T09:35:27.379Z,6.24
2023-04-03T09:38:23.657Z,6.13
2023-04-03T09:41:08.835Z,6.17
2023-04-03T09:43:53.625Z,6.23
2023-04-03T09:46:35.079Z,6.26
2023-04-03T09:49:13.100Z,6.21
2023-04-03T09:51:46.362Z,6.21
2023-04-03T09:54:44.319Z,6.25
2023-04-03T09:57:17.426Z,6.25
2023-04-03T10:00:00.720Z,6.26
2023-04-03T10:02:38.270Z,6.27
2023-04-03T10:05:34.372Z,6.45
2023-04-03T10:08:24.627Z,6.77
2023-04-03T10:11:18.289Z,7.07
2023-04-03T10:14:00.648Z,7.37
2023-04-03T10:16:43.264Z,7.56
2023-04-03T10:19:32.250Z,7.80
2023-04-03T10:22:15.616Z,7.99
2023-04-03T10:24:55.928Z,8.13
2023-04-03T10:27:39.539Z,8.14
2023-04-03T10:30:30.994Z,8.06
2023-04-03T10:33:16.948Z,7.98
2023-04-03T10:36:02.406Z,7.84
2023-04-03T10:38:45.513Z,7.86
2023-04-03T10:41:26.288Z,7.95
2023-04-03T10:44:07.582Z,7.89
2023-04-03T10:46:44.382Z,7.84
2023-04-03T10:49:38.007Z,7.74
2023-04-03T10:52:19.289Z,7.72
2023-04-03T10:55:00.281Z,7.89
2023-04-03T10:57:33.051Z,8.05
2023-04-03T11:00:10.590Z,8.02
2023-04-03T11:02:50.626Z,8.06
2023-04-03T11:05:33.681Z,8.18
2023-04-03T11:08:13.686Z,8.30
2023-04-03T11:10:47.791Z,8.32
2023-04-03T11:13:24.436Z,8.22
2023-04-03T11:15:59.220Z,8.15
2023-04-03T11:18:39.945Z,8.20
2023-04-03T11:21:18.707Z,8.18
2023-04-03T11:23:52.365Z,8.16
2023-04-03T11:26:29.499Z,8.25
2023-04-03T11:29:08.185Z,8.27
2023-04-03T11:32:06.714Z,8.31
2023-04-03T11:34:42.817Z,8.47
2023-04-03T11:37:24.282Z,8.61
2023-04-03T11:40:01.781Z,8.55
2023-04-03T11:42:38.988Z,8.42
2023-04-03T11:45:28.895Z,8.25
2023-04-03T11:48:16.693Z,8.25
2023-04-03T11:50:55.631Z,8.34
2023-04-03T11:53:40.324Z,8.46
2023-04-03T11:56:33.960Z,8.62
2023-04-03T11:59:28.954Z,8.73
2023-04-03T12:02:01.654Z,8.64
2023-04-03T12:04:34.037Z,8.66
2023-04-03T12:07:28.741Z,8.63
2023-04-03T12:10:04.340Z,8.62
2023-04-03T12:12:42.674Z,8.56
2023-04-03T12:15:51.053Z,8.53
2023-04-03T12:18:59.699Z,8.55
2023-04-03T12:22:10.097Z,8.71
2023-04-03T12:24:43.974Z,8.85
2023-04-03T12:27:41.394Z,8.91
2023-04-03T12:30:27.578Z,8.92
2023-04-03T12:33:26.851Z,8.96
2023-04-03T12:36:10.500Z,9.10
2023-04-03T12:39:18.200Z,9.18
2023-04-03T12:42:00.660Z,8.98
2023-04-03T12:44:46.595Z,8.84
2023-04-03T12:47:34.230Z,8.86
2023-04-03T12:50:20.706Z,8.94
2023-04-03T12:52:57.210Z,8.87
2023-04-03T12:55:29.733Z,8.76
2023-04-03T12:58:18.180Z,8.70
2023-04-03T13:01:00.772Z,8.70
2023-04-03T13:03:33.867Z,8.77
2023-04-03T13:06:06.817Z,8.78
2023-04-03T13:08:39.227Z,8.65
2023-04-03T13:11:14.611Z,8.64
2023-04-03T13:13:58.380Z,8.57
2023-04-03T13:16:31.399Z,8.37
2023-04-03T13:19:03.641Z,8.22
2023-04-03T13:21:37.226Z,8.19
2023-04-03T13:24:15.198Z,8.29
2023-04-03T13:26:48.087Z,8.45
2023-04-03T13:29:30.941Z,8.56
2023-04-03T13:32:07.284Z,8.54
2023-04-03T13:34:45.857Z,8.45
2023-04-03T13:37:29.682Z,8.27
2023-04-03T13:40:06.633Z,8.26
2023-04-03T13:42:42.352Z,8.27
2023-04-03T13:45:22.012Z,8.13
2023-04-03T13:47:56.984Z,7.95
2023-04-03T13:50:30.181Z,7.87
2023-04-03T13:53:13.433Z,7.92
2023-04-03T13:56:00.239Z,7.96
2023-04-03T13:58:35.561Z,7.85
2023-04-03T14:01:19.292Z,7.67
2023-04-03T14:03:57.603Z,7.56
2023-04-03T14:06:30.990Z,7.54
2023-04-03T14:09:03.711Z,7.50
2023-04-03T14:11:37.719Z,7.39
2023-04-03T14:14:16.983Z,7.30
2023-04-03T14:16:56.611Z,7.30
2023-04-03T14:19:33.032Z,7.28
2023-04-03T14:22:18.640Z,7.17
2023-04-03T14:24:51.815Z,7.09
2023-04-03T14:27:27.888Z,7.10
2023-04-03T14:30:01.488Z,7.11
2023-04-03T14:32:33.769Z,7.08
2023-04-03T14:35:07.841Z,7.01
2023-04-03T14:37:40.267Z,6.89
2023-04-03T14:40:18.423Z,6.81
2023-04-03T14:42:51.778Z,6.77
2023-04-03T14:45:25.245Z,6.78
2023-04-03T14:47:59.622Z,6.79
2023-04-03T14:50:31.904Z,6.74
2023-04-03T14:53:04.180Z,6.63
2023-04-03T14:55:36.479Z,6.54
2023-04-03T14:58:10.700Z,6.48
2023-04-03T15:00:42.970Z,6.42
2023-04-03T15:03:19.942Z,6.35
2023-04-03T15:05:53.212Z,6.26
2023-04-03T15:08:28.262Z,6.24
2023-04-03T15:11:02.140Z,6.20
2023-04-03T15:13:34.541Z,6.17
2023-04-03T15:16:08.326Z,6.16
2023-04-03T15:18:41.472Z,6.23
2023-04-03T15:21:13.983Z,6.28
2023-04-03T15:23:46.306Z,6.26
2023-04-03T15:26:18.598Z,6.25
2023-04-03T15:28:50.861Z,6.20
2023-04-03T15:31:23.161Z,6.16
2023-04-03T15:33:55.693Z,6.10
2023-04-03T15:36:34.003Z,6.01
2023-04-03T15:39:07.734Z,5.95
2023-04-03T15:41:40.077Z,5.90
2023-04-03T15:44:13.268Z,5.84
2023-04-03T15:46:45.956Z,5.77
2023-04-03T15:49:18.430Z,5.76
2023-04-03T15:51:50.755Z,5.74
2023-04-03T15:54:25.092Z,5.73
2023-04-03T15:56:57.374Z,5.70
2023-04-03T15:59:30.155Z,5.66
2023-04-03T16:02:06.110Z,5.63
2023-04-03T16:04:38.381Z,5.57
2023-04-03T16:07:10.729Z,5.49
2023-04-03T16:09:43.025Z,5.48
2023-04-03T16:12:15.680Z,5.47
2023-04-03T16:14:47.923Z,5.45
2023-04-03T16:17:20.249Z,5.45
2023-04-03T16:19:52.469Z,5.43
2023-04-03T16:22:26.165Z,5.40
2023-04-03T16:24:58.554Z,5.32
2023-04-03T16:27:32.059Z,5.20
2023-04-03T16:30:04.524Z,5.08
2023-04-03T16:32:38.041Z,5.01
2023-04-03T16:35:12.061Z,4.95
2023-04-03T16:37:44.427Z,4.91
2023-04-03T16:40:16.856Z,4.93
2023-04-03T16:42:49.077Z,4.93
2023-04-03T16:45:21.550Z,4.95
2023-04-03T16:47:53.871Z,4.89
2023-04-03T16:50:26.310Z,4.82
2023-04-03T16:52:58.561Z,4.85
2023-04-03T16:55:30.733Z,4.87
2023-04-03T16:58:03.094Z,4.87
2023-04-03T17:00:35.532Z,4.86
2023-04-03T17:03:07.938Z,4.85
2023-04-03T17:05:40.394Z,4.83
2023-04-03T17:08:14.963Z,4.82
2023-04-03T17:10:48.326Z,4.78
2023-04-03T17:13:21.470Z,4.73
2023-04-03T17:15:53.727Z,4.72
2023-04-03T17:18:26.639Z,4.69
2023-04-03T17:20:59.114Z,4.61
2023-04-03T17:23:31.949Z,4.60
2023-04-03T17:26:04.934Z,4.58
2023-04-03T17:28:37.121Z,4.52
2023-04-03T17:31:09.676Z,4.46
2023-04-03T17:33:41.954Z,4.45
2023-04-03T17:36:14.567Z,4.46
2023-04-03T17:38:48.502Z,4.48
2023-04-03T17:41:20.929Z,4.48
2023-04-03T17:43:56.503Z,4.44
2023-04-03T17:46:30.987Z,4.45
2023-04-03T17:49:04.792Z,4.42
2023-04-03T17:51:36.997Z,4.34
2023-04-03T17:54:09.493Z,4.30
2023-04-03T17:56:47.814Z,4.28
2023-04-03T17:59:20.787Z,4.21
2023-04-03T18:01:53.471Z,4.15
2023-04-03T18:04:25.816Z,4.15
2023-04-03T18:06:58.580Z,4.17
2023-04-03T18:09:35.125Z,4.16
2023-04-03T18:12:09.845Z,4.16
2023-04-03T18:14:43.009Z,4.18
2023-04-03T18:17:15.574Z,4.19
2023-04-03T18:19:48.464Z,4.18
2023-04-03T18:22:23.928Z,4.15
2023-04-03T18:24:58.040Z,4.12
2023-04-03T18:27:30.934Z,4.05
2023-04-03T18:30:08.680Z,3.96
2023-04-03T18:32:41.337Z,3.94
2023-04-03T18:35:15.044Z,3.91
2023-04-03T18:37:47.306Z,3.95
2023-04-03T18:40:19.911Z,3.98
2023-04-03T18:42:52.307Z,3.97
2023-04-03T18:45:26.919Z,3.92
2023-04-03T18:47:59.777Z,3.89
2023-04-03T18:50:32.915Z,3.91
2023-04-03T18:53:05.254Z,3.91
2023-04-03T18:55:37.499Z,3.87
2023-04-03T18:58:09.778Z,3.89
2023-04-03T19:00:43.484Z,3.82
2023-04-03T19:03:17.072Z,3.77
2023-04-03T19:05:49.789Z,3.75
2023-04-03T19:08:22.395Z,3.70
2023-04-03T19:10:54.725Z,3.63
2023-04-03T19:13:28.240Z,3.56
2023-04-03T19:16:01.554Z,3.56
2023-04-03T19:18:33.870Z,3.53
2023-04-03T19:21:06.821Z,3.53
2023-04-03T19:23:41.458Z,3.54
2023-04-03T19:26:14.682Z,3.55
2023-04-03T19:28:50.706Z,3.57
2023-04-03T19:31:24.454Z,3.56
2023-04-03T19:33:57.354Z,3.51
2023-04-03T19:36:29.640Z,3.47
2023-04-03T19:39:01.879Z,3.47
2023-04-03T19:41:36.903Z,3.48
2023-04-03T19:44:08.386Z,3.49
2023-04-03T19:46:40.824Z,3.49
2023-04-03T19:49:24.207Z,3.48
2023-04-03T19:51:56.715Z,3.49
2023-04-03T19:54:28.957Z,3.49
2023-04-03T19:57:02.040Z,3.43
2023-04-03T19:59:34.297Z,3.40
2023-04-03T20:02:06.798Z,3.42
2023-04-03T20:04:39.514Z,3.40
2023-04-03T20:07:12.793Z,3.34
2023-04-03T20:09:45.166Z,3.24
2023-04-03T20:12:17.548Z,3.23
2023-04-03T20:14:49.816Z,3.18
2023-04-03T20:17:22.087Z,3.14
2023-04-03T20:19:54.301Z,3.07
2023-04-03T20:22:26.610Z,3.00
2023-04-03T20:25:06.079Z,2.96
2023-04-03T20:27:39.723Z,2.93
2023-04-03T20:30:15.055Z,2.93
2023-04-03T20:32:48.603Z,2.90
2023-04-03T20:35:22.298Z,2.89
2023-04-03T20:37:54.708Z,2.87
2023-04-03T20:40:27.559Z,2.85
2023-04-03T20:42:59.904Z,2.84
2023-04-03T20:45:32.714Z,2.82
2023-04-03T20:48:06.010Z,2.80
2023-04-03T20:50:38.660Z,2.80
2023-04-03T20:53:11.085Z,2.81
2023-04-03T20:55:43.353Z,2.83
2023-04-03T20:58:15.562Z,2.82
2023-04-03T21:00:47.816Z,2.81
2023-04-03T21:03:20.421Z,2.82
2023-04-03T21:06:00.489Z,2.84
2023-04-03T21:09:07.963Z,2.79
2023-04-03T21:12:15.425Z,2.73
2023-04-03T21:15:22.305Z,2.70
2023-04-03T21:18:19.880Z,2.67
2023-04-03T21:20:52.131Z,2.67
2023-04-03T21:23:24.850Z,2.68
2023-04-03T21:25:57.574Z,2.67
2023-04-03T21:28:29.826Z,2.63
2023-04-03T21:31:02.158Z,2.65
2023-04-03T21:33:34.485Z,2.65
2023-04-03T21:36:07.910Z,2.63
2023-04-03T21:38:40.800Z,2.60
2023-04-03T21:41:13.050Z,2.63
2023-04-03T21:43:48.348Z,2.65
2023-04-03T21:46:20.770Z,2.67
2023-04-03T21:48:53.038Z,2.67
2023-04-03T21:51:25.400Z,2.65
2023-04-03T21:53:58.183Z,2.67
2023-04-03T21:56:31.602Z,2.68
2023-04-03T21:59:05.128Z,2.69
2023-04-03T22:01:37.590Z,2.66
2023-04-03T22:04:09.918Z,2.65
2023-04-03T22:06:42.257Z,2.68
2023-04-03T22:09:14.769Z,2.69
2023-04-03T22:11:49.134Z,2.69
2023-04-03T22:14:21.379Z,2.67
2023-04-03T22:16:54.119Z,2.66
2023-04-03T22:19:26.444Z,2.64
2023-04-03T22:21:58.640Z,2.62
2023-04-03T22:24:31.206Z,2.61
2023-04-03T22:27:03.418Z,2.62
2023-04-03T22:29:35.607Z,2.63
2023-04-03T22:32:08.339Z,2.61
2023-04-03T22:34:41.276Z,2.62
2023-04-03T22:37:13.631Z,2.64
2023-04-03T22:39:45.913Z,2.67
2023-04-03T22:42:18.234Z,2.77
2023-04-03T22:44:50.490Z,2.83
2023-04-03T22:47:23.011Z,2.86
2023-04-03T22:49:55.180Z,2.92
2023-04-03T22:52:27.398Z,3.06
2023-04-03T22:55:06.252Z,3.16
2023-04-03T22:57:48.842Z,3.25
2023-04-03T23:00:21.921Z,3.23
2023-04-03T23:02:54.224Z,3.19
2023-04-03T23:05:26.785Z,3.16
2023-04-03T23:07:59.096Z,3.14
2023-04-03T23:10:31.516Z,3.11
2023-04-03T23:13:03.786Z,3.07
2023-04-03T23:15:36.053Z,3.04
2023-04-03T23:18:08.575Z,2.99
2023-04-03T23:20:41.103Z,2.96
2023-04-03T23:23:13.622Z,2.93
2023-04-03T23:25:45.645Z,2.90
2023-04-03T23:28:18.160Z,2.87
2023-04-03T23:30:51.184Z,2.83
2023-04-03T23:33:23.360Z,2.80
2023-04-03T23:35:55.726Z,2.78
2023-04-03T23:38:28.441Z,2.76
2023-04-03T23:41:00.776Z,2.72
2023-04-03T23:43:33.195Z,2.68
2023-04-03T23:46:05.469Z,2.67
2023-04-03T23:48:38.062Z,2.63
2023-04-03T23:51:10.289Z,2.61
2023-04-03T23:53:42.528Z,2.60
2023-04-03T23:56:14.728Z,2.67
2023-04-03T23:58:46.885Z,2.70
